createdAt,value
2022-08-17T00:02:26.069Z,24.1
2022-08-17T00:06:26.631Z,25.1
2022-08-17T00:08:28.117Z,35.4
2022-08-17T00:10:29.551Z,41.7
2022-08-17T00:12:43.116Z,36.7
2022-08-17T00:14:35.765Z,37.3
2022-08-17T00:16:53.476Z,35.7
2022-08-17T00:19:01.957Z,27.7
2022-08-17T00:22:41.616Z,29.8
2022-08-17T00:24:43.082Z,28.9
2022-08-17T00:26:45.486Z,27.8
2022-08-17T00:33:13.920Z,32.2
2022-08-17T00:33:54.677Z,30.7
2022-08-17T00:35:56.196Z,33.5
2022-08-17T00:37:57.637Z,34.1
2022-08-17T00:39:59.201Z,35.2
2022-08-17T00:42:03.926Z,29.5
2022-08-17T00:44:05.387Z,33.6
2022-08-17T00:46:06.866Z,32.1
2022-08-17T00:48:26.213Z,37.6
2022-08-17T00:50:09.812Z,34.7
2022-08-17T00:52:12.019Z,34.1
2022-08-17T00:54:12.761Z,35.5
2022-08-17T00:56:17.542Z,40.7
2022-08-17T00:58:19.045Z,50
2022-08-17T01:00:20.519Z,36.4
2022-08-17T01:02:22.010Z,31
2022-08-17T01:08:26.421Z,47.8
2022-08-17T01:16:36.470Z,40.8
2022-08-17T01:18:37.914Z,48.1
2022-08-17T01:22:40.938Z,56.9
2022-08-17T01:24:45.701Z,44.7
2022-08-17T01:26:47.195Z,37.7
2022-08-17T01:28:53.712Z,47.8
2022-08-17T01:29:51.036Z,37.3
2022-08-17T01:33:53.979Z,38.4
2022-08-17T01:35:55.447Z,34
2022-08-17T01:38:00.275Z,30.7
2022-08-17T01:40:01.800Z,40.8
2022-08-17T01:42:03.254Z,32.3
2022-08-17T01:46:06.297Z,26.7
2022-08-17T01:48:07.826Z,27.6
2022-08-17T01:50:09.259Z,36.7
2022-08-17T01:52:14.068Z,40.7
2022-08-17T01:56:17.064Z,45.1
2022-08-17T01:58:18.531Z,47.3
2022-08-17T02:00:20.019Z,51.5
2022-08-17T02:02:30.945Z,60.2
2022-08-17T02:04:23.012Z,52.5
2022-08-17T02:06:28.427Z,41.5
2022-08-17T02:08:38.857Z,48.1
2022-08-17T02:10:33.981Z,52.6
2022-08-17T02:12:37.312Z,55.5
2022-08-17T02:16:36.925Z,55.4
2022-08-17T02:18:36.689Z,63.2
2022-08-17T02:22:42.989Z,55.6
2022-08-17T02:24:58.428Z,56.6
2022-08-17T02:27:48.293Z,60.3
2022-08-17T02:29:49.790Z,57.8
2022-08-17T02:31:51.312Z,52.9
2022-08-17T02:33:56.789Z,49.8
2022-08-17T02:35:57.581Z,47.8
2022-08-17T02:37:59.003Z,73.6
2022-08-17T02:40:00.530Z,53.7
2022-08-17T02:42:01.924Z,54.5
2022-08-17T02:44:03.344Z,53
2022-08-17T02:46:04.834Z,44.3
2022-08-17T02:48:09.596Z,58.6
2022-08-17T02:50:11.102Z,49.5
2022-08-17T02:52:12.551Z,45.8
2022-08-17T02:54:41.499Z,54.5
2022-08-17T02:56:15.524Z,63
2022-08-17T02:58:17.025Z,51.9
2022-08-17T03:00:18.485Z,53.5
2022-08-17T03:02:23.265Z,49.2
2022-08-17T03:04:24.767Z,45.2
2022-08-17T03:06:26.225Z,49.1
2022-08-17T03:08:27.694Z,42
2022-08-17T03:10:29.173Z,49.1
2022-08-17T03:12:30.642Z,36.5
2022-08-17T03:14:32.160Z,42.1
2022-08-17T03:18:38.410Z,41.2
2022-08-17T03:20:39.851Z,42.3
2022-08-17T03:25:02.946Z,43.8
2022-08-17T03:29:09.277Z,48.9
2022-08-17T03:31:10.661Z,49.8
2022-08-17T03:33:12.157Z,48.2
2022-08-17T03:35:13.636Z,45.7
2022-08-17T03:37:15.114Z,48.1
2022-08-17T03:39:16.570Z,45.9
2022-08-17T03:43:22.855Z,54.4
2022-08-17T03:45:24.283Z,42
2022-08-17T03:47:25.754Z,51.8
2022-08-17T03:49:27.400Z,45.8
2022-08-17T03:51:28.679Z,45.8
2022-08-17T03:53:30.194Z,48.5
2022-08-17T03:55:36.071Z,39.5
2022-08-17T03:57:36.418Z,45.5
2022-08-17T03:59:37.846Z,45.2
2022-08-17T04:01:39.386Z,44.4
2022-08-17T04:05:42.271Z,55.9
2022-08-17T04:07:43.704Z,44.7
2022-08-17T04:09:45.204Z,45.8
2022-08-17T04:11:49.956Z,47
2022-08-17T04:13:53.000Z,44.8
2022-08-17T04:15:54.429Z,42
2022-08-17T04:16:56.794Z,44.3
2022-08-17T04:25:06.065Z,47.2
2022-08-17T04:27:07.452Z,45.4
2022-08-17T04:29:08.944Z,46.1
2022-08-17T04:31:10.414Z,42
2022-08-17T04:33:12.183Z,37.6
2022-08-17T04:35:13.321Z,46.6
2022-08-17T04:37:14.750Z,46.2
2022-08-17T04:39:19.604Z,47.3
2022-08-17T04:41:21.071Z,43.9
2022-08-17T04:43:22.484Z,45.2
2022-08-17T04:45:23.943Z,44.2
2022-08-17T04:49:26.856Z,42.6
2022-08-17T04:51:28.314Z,42.8
2022-08-17T04:53:33.076Z,48.9
2022-08-17T04:57:38.476Z,51.2
2022-08-17T04:59:37.452Z,43.9
2022-08-17T05:01:39.007Z,47.2
2022-08-17T05:03:40.412Z,46.4
2022-08-17T05:05:41.860Z,41.9
2022-08-17T05:07:46.618Z,39.7
2022-08-17T05:09:48.072Z,39.8
2022-08-17T05:12:52.106Z,39.2
2022-08-17T05:14:53.392Z,39.3
2022-08-17T05:18:56.285Z,45.8
2022-08-17T05:23:02.524Z,43.8
2022-08-17T05:25:03.900Z,45.2
2022-08-17T05:27:06.177Z,45.1
2022-08-17T05:29:06.823Z,39.5
2022-08-17T05:35:14.400Z,37.9
2022-08-17T05:37:15.814Z,36.7
2022-08-17T05:41:18.756Z,39.5
2022-08-17T05:47:23.071Z,35.4
2022-08-17T05:55:32.204Z,45.1
2022-08-17T05:57:33.644Z,47.2
2022-08-17T05:59:35.107Z,42.3
2022-08-17T06:01:36.655Z,50.1
2022-08-17T06:03:41.299Z,49.2
2022-08-17T06:05:42.774Z,52.7
2022-08-17T06:07:44.242Z,51.4
2022-08-17T06:08:46.649Z,43.8
2022-08-17T06:10:48.083Z,42
2022-08-17T06:12:49.822Z,47
2022-08-17T06:14:50.984Z,51.6
2022-08-17T06:16:55.736Z,45.3
2022-08-17T06:18:57.237Z,47.8
2022-08-17T06:20:58.690Z,50.3
2022-08-17T06:23:00.156Z,52.8
2022-08-17T06:25:01.589Z,48.8
2022-08-17T06:27:03.016Z,55.1
2022-08-17T06:29:04.494Z,57.2
2022-08-17T06:31:09.257Z,49.5
2022-08-17T06:35:12.160Z,56.7
2022-08-17T06:37:13.624Z,49.3
2022-08-17T06:39:15.050Z,47.8
2022-08-17T06:41:16.464Z,58
2022-08-17T06:43:17.929Z,60.6
2022-08-17T06:45:22.707Z,56.3
2022-08-17T06:47:28.504Z,48.4
2022-08-17T06:49:25.573Z,58.3
2022-08-17T06:51:26.923Z,43.9
2022-08-17T06:53:28.376Z,54.2
2022-08-17T06:55:33.190Z,46
2022-08-17T06:57:31.303Z,43.7
2022-08-17T06:59:55.723Z,40.6
2022-08-17T07:01:37.451Z,40.4
2022-08-17T07:03:38.805Z,40.8
2022-08-17T07:06:01.322Z,35.5
2022-08-17T07:08:02.770Z,32.3
2022-08-17T07:10:04.178Z,42.2
2022-08-17T07:12:08.939Z,29.5
2022-08-17T07:14:12.846Z,32.3
2022-08-17T07:16:11.594Z,36.1
2022-08-17T07:18:12.926Z,33
2022-08-17T07:20:14.248Z,33.6
2022-08-17T07:22:15.541Z,26.6
2022-08-17T07:24:30.292Z,31.9
2022-08-17T07:26:21.819Z,29.8
2022-08-17T07:28:23.141Z,30.1
2022-08-17T07:30:24.644Z,23.4
2022-08-17T07:32:25.841Z,30.2
2022-08-17T07:38:29.721Z,26.2
2022-08-17T07:40:34.411Z,24.5
2022-08-17T07:42:35.680Z,26
2022-08-17T07:44:36.998Z,25.3
2022-08-17T07:46:38.392Z,22.5
2022-08-17T07:48:39.749Z,25.1
2022-08-17T07:50:41.021Z,19.7
2022-08-17T07:52:51.972Z,24.7
2022-08-17T07:54:46.945Z,24.6
2022-08-17T07:56:48.329Z,24.9
2022-08-17T07:58:49.683Z,26.9
2022-08-17T07:59:51.933Z,25.8
2022-08-17T08:01:55.530Z,25.8
2022-08-17T08:03:54.472Z,24.3
2022-08-17T08:05:55.761Z,17.5
2022-08-17T08:08:00.237Z,19.5
2022-08-17T08:10:01.516Z,21.6
2022-08-17T08:12:02.779Z,23.3
2022-08-17T08:14:04.086Z,26.9
2022-08-17T08:16:05.404Z,23.4
2022-08-17T08:18:06.709Z,22.8
2022-08-17T08:20:37.750Z,22.2
2022-08-17T08:22:12.656Z,19.6
2022-08-17T08:24:13.947Z,19.9
2022-08-17T08:26:18.277Z,19.3
2022-08-17T08:28:16.591Z,22.6
2022-08-17T08:30:17.998Z,26.8
2022-08-17T08:32:19.317Z,21.5
2022-08-17T08:34:44.506Z,24.1
2022-08-17T08:36:56.996Z,25.2
2022-08-17T08:38:26.580Z,23.2
2022-08-17T08:40:27.872Z,26.9
2022-08-17T08:45:00.263Z,22.7
2022-08-17T08:48:56.433Z,26
2022-08-17T08:50:38.633Z,24.5
2022-08-17T08:52:38.877Z,25.6
2022-08-17T08:54:40.156Z,20.7
2022-08-17T08:57:43.670Z,23.1
2022-08-17T08:59:45.102Z,35.2
2022-08-17T09:07:56.232Z,22.1
2022-08-17T09:09:59.009Z,24.6
2022-08-17T09:12:01.766Z,19.6
2022-08-17T09:13:56.953Z,19.9
2022-08-17T09:15:58.194Z,24.9
2022-08-17T09:18:59.233Z,29.4
2022-08-17T09:20:03.864Z,24
2022-08-17T09:22:05.131Z,19.8
2022-08-17T09:24:06.347Z,26.4
2022-08-17T09:26:07.561Z,28.3
2022-08-17T09:32:14.480Z,25.9
2022-08-17T09:34:15.728Z,27.5
2022-08-17T09:38:18.146Z,27
2022-08-17T09:40:19.630Z,19.8
2022-08-17T09:48:27.473Z,27.6
2022-08-17T09:51:03.914Z,20.5
2022-08-17T09:51:30.784Z,24.6
2022-08-17T09:53:32.216Z,24.1
2022-08-17T09:59:38.891Z,26.6
2022-08-17T10:01:40.116Z,26.1
2022-08-17T10:03:42.727Z,20.8
2022-08-17T10:05:43.842Z,19.7
2022-08-17T10:07:45.055Z,25.5
2022-08-17T10:09:46.249Z,21.7
2022-08-17T10:11:48.331Z,23.7
2022-08-17T10:13:53.032Z,21.1
2022-08-17T10:15:53.084Z,25
2022-08-17T10:17:54.271Z,22.2
2022-08-17T10:19:55.462Z,29.5
2022-08-17T10:23:57.848Z,21.4
2022-08-17T10:25:59.073Z,22.6
2022-08-17T10:28:03.549Z,21.2
2022-08-17T10:30:04.724Z,25.8
2022-08-17T10:34:07.155Z,24.1
2022-08-17T10:36:10.803Z,24.9
2022-08-17T10:38:09.550Z,23.3
2022-08-17T10:40:10.831Z,28
2022-08-17T10:42:15.348Z,24.6
2022-08-17T10:44:39.557Z,24.4
2022-08-17T10:46:30.562Z,20.5
2022-08-17T10:58:43.295Z,31.6
2022-08-17T11:02:45.723Z,27.8
2022-08-17T11:06:53.092Z,31.9
2022-08-17T11:08:52.545Z,25.5
2022-08-17T11:14:56.180Z,32.7
2022-08-17T11:16:57.381Z,27.5
2022-08-17T11:18:58.567Z,33.2
2022-08-17T11:20:59.777Z,29.9
2022-08-17T11:25:05.446Z,28.5
2022-08-17T11:27:06.993Z,27
2022-08-17T11:29:07.834Z,30
2022-08-17T11:31:09.044Z,26.2
2022-08-17T11:33:10.234Z,25.4
2022-08-17T11:35:11.443Z,27.2
2022-08-17T11:37:15.934Z,30
2022-08-17T11:39:17.155Z,30.3
2022-08-17T11:41:18.341Z,30.9
2022-08-17T11:42:20.514Z,36.2
2022-08-17T11:44:21.711Z,31.3
2022-08-17T11:46:22.917Z,32.2
2022-08-17T11:48:28.304Z,27.8
2022-08-17T11:50:28.593Z,31
2022-08-17T11:52:29.766Z,28.6
2022-08-17T11:54:33.366Z,28.6
2022-08-17T11:56:32.206Z,30.4
2022-08-17T11:58:33.421Z,29
2022-08-17T12:00:34.640Z,35.8
2022-08-17T12:02:35.866Z,33.4
2022-08-17T12:04:40.385Z,33.6
2022-08-17T12:06:41.572Z,32.4
2022-08-17T12:08:42.763Z,31.5
2022-08-17T12:10:44.010Z,32.3
2022-08-17T12:12:45.268Z,32.9
2022-08-17T12:15:09.073Z,32.8
2022-08-17T12:16:47.879Z,35.3
2022-08-17T12:18:52.552Z,40.6
2022-08-17T12:20:56.762Z,34.5
2022-08-17T12:22:55.063Z,38.3
2022-08-17T12:24:56.309Z,43
2022-08-17T12:26:57.597Z,41.9
2022-08-17T12:28:59.744Z,45.3
2022-08-17T12:31:00.211Z,37.4
2022-08-17T12:33:04.741Z,41.4
2022-08-17T12:35:06.082Z,37.8
2022-08-17T12:37:07.371Z,40.3
2022-08-17T12:38:32.616Z,40.6
2022-08-17T12:40:11.014Z,41.3
2022-08-17T12:42:12.209Z,46.8
2022-08-17T12:48:19.263Z,41.2
2022-08-17T12:50:28.858Z,39.8
2022-08-17T12:52:21.812Z,46
2022-08-17T12:54:23.155Z,44.4
2022-08-17T12:56:24.430Z,43.7
2022-08-17T12:58:25.700Z,45.8
2022-08-17T13:00:30.201Z,31.5
2022-08-17T13:02:31.463Z,32
2022-08-17T13:04:32.723Z,33
2022-08-17T13:06:34.086Z,48
2022-08-17T13:08:35.380Z,34.1
2022-08-17T13:10:36.636Z,34.7
2022-08-17T13:12:37.979Z,38.4
2022-08-17T13:14:42.601Z,42.9
2022-08-17T13:16:44.161Z,40.7
2022-08-17T13:18:45.230Z,43.2
2022-08-17T13:20:46.571Z,44.8
2022-08-17T13:22:47.835Z,49.7
2022-08-17T13:24:49.123Z,50
2022-08-17T13:26:50.483Z,52.6
2022-08-17T13:28:55.169Z,60.4
2022-08-17T13:30:56.454Z,50.4
2022-08-17T13:32:57.776Z,51.4
2022-08-17T13:34:00.055Z,58.7
2022-08-17T13:36:01.475Z,61.9
2022-08-17T13:38:02.869Z,64.5
2022-08-17T13:40:04.409Z,60.3
2022-08-17T13:42:12.210Z,65.9
2022-08-17T13:44:10.243Z,62.1
2022-08-17T13:46:11.642Z,60.1
2022-08-17T13:48:14.105Z,64.7
2022-08-17T13:50:14.334Z,56.7
2022-08-17T13:52:15.746Z,68.1
2022-08-17T13:54:17.136Z,67.9
2022-08-17T13:56:37.293Z,63.3
2022-08-17T13:58:23.141Z,61.3
2022-08-17T14:00:24.532Z,58.2
2022-08-17T14:02:28.592Z,59.5
2022-08-17T14:04:27.205Z,70.4
2022-08-17T14:06:52.344Z,59.2
2022-08-17T14:08:29.961Z,63.4
2022-08-17T14:10:34.664Z,63.9
2022-08-17T14:12:35.984Z,68.2
2022-08-17T14:14:37.355Z,67.7
2022-08-17T14:16:38.693Z,63.7
2022-08-17T14:18:56.533Z,66.9
2022-08-17T14:20:41.533Z,63
2022-08-17T14:22:42.930Z,66.2
2022-08-17T14:24:47.666Z,72.8
2022-08-17T14:26:49.091Z,67.5
2022-08-17T14:28:56.233Z,65.5
2022-08-17T14:31:13.266Z,76.8
2022-08-17T14:35:16.000Z,72.6
2022-08-17T14:37:20.608Z,87.5
2022-08-17T14:39:22.021Z,83.9
2022-08-17T14:45:29.957Z,72.2
2022-08-17T14:47:27.425Z,65.6
2022-08-17T14:49:28.731Z,68.8
2022-08-17T14:51:33.267Z,64.4
2022-08-17T14:53:34.658Z,65.6
2022-08-17T14:55:36.044Z,70.7
2022-08-17T14:57:37.344Z,58.1
2022-08-17T14:59:38.611Z,55.4
2022-08-17T15:01:40.002Z,61.6
2022-08-17T15:03:41.336Z,56.3
2022-08-17T15:05:46.022Z,58.8
2022-08-17T15:07:47.297Z,57.4
2022-08-17T15:09:48.598Z,53.3
2022-08-17T15:13:52.840Z,55.2
2022-08-17T15:15:52.457Z,52.5
2022-08-17T15:17:53.825Z,56.1
2022-08-17T15:19:58.334Z,48.8
2022-08-17T15:21:59.732Z,49
2022-08-17T15:24:01.097Z,37.6
2022-08-17T15:25:03.514Z,39.7
2022-08-17T15:27:04.814Z,41.9
2022-08-17T15:29:06.169Z,44.5
2022-08-17T15:31:07.442Z,40.9
2022-08-17T15:33:11.921Z,38.1
2022-08-17T15:35:13.512Z,34.7
2022-08-17T15:37:14.747Z,34
2022-08-17T15:39:19.678Z,29.2
2022-08-17T15:41:17.241Z,33.2
2022-08-17T15:43:22.017Z,31.9
2022-08-17T15:45:19.715Z,30.1
2022-08-17T15:47:24.163Z,34.9
2022-08-17T15:49:25.401Z,28
2022-08-17T15:51:26.649Z,33.1
2022-08-17T15:53:29.478Z,34
2022-08-17T15:55:30.680Z,35.2
2022-08-17T15:57:31.904Z,36.2
2022-08-17T15:59:33.161Z,27.5
2022-08-17T16:03:12.945Z,28.9
2022-08-17T16:03:59.273Z,28.3
2022-08-17T16:05:40.907Z,31.6
2022-08-17T16:07:41.401Z,30.4
2022-08-17T16:09:42.724Z,27.6
2022-08-17T16:11:44.007Z,23.5
2022-08-17T16:13:53.075Z,24.7
2022-08-17T16:15:57.179Z,32.1
2022-08-17T16:17:51.416Z,27.4
2022-08-17T16:19:52.327Z,32.4
2022-08-17T16:22:55.935Z,34.1
2022-08-17T16:24:57.831Z,36.7
2022-08-17T16:26:58.493Z,35.6
2022-08-17T16:29:03.167Z,36.5
2022-08-17T16:33:05.725Z,42.2
2022-08-17T16:35:07.011Z,45.7
2022-08-17T16:37:08.323Z,43
2022-08-17T16:39:09.613Z,45
2022-08-17T16:41:10.929Z,38.7
2022-08-17T16:43:15.605Z,42.6
2022-08-17T16:45:16.923Z,50.2
2022-08-17T16:47:18.215Z,43.2
2022-08-17T16:49:35.589Z,52.2
2022-08-17T16:51:20.776Z,52.1
2022-08-17T16:55:23.520Z,50.3
2022-08-17T16:57:28.180Z,61.4
2022-08-17T16:59:31.268Z,60.1
2022-08-17T17:01:30.955Z,57.7
2022-08-17T17:03:32.278Z,55.1
2022-08-17T17:05:33.599Z,58.8
2022-08-17T17:13:42.438Z,65.9
2022-08-17T17:15:43.774Z,72.4
2022-08-17T17:16:46.129Z,87.2
2022-08-17T17:18:47.495Z,67.8
2022-08-17T17:20:48.866Z,74.6
2022-08-17T17:22:50.298Z,67.3
2022-08-17T17:24:55.037Z,65.8
2022-08-17T17:26:56.433Z,66.8
2022-08-17T17:28:57.856Z,64
2022-08-17T17:30:59.252Z,56.1
2022-08-17T17:33:00.662Z,68.4
2022-08-17T17:35:02.019Z,70.8
2022-08-17T17:37:03.372Z,62.5
2022-08-17T17:39:08.010Z,65
2022-08-17T17:41:09.366Z,62.9
2022-08-17T17:43:37.087Z,70.9
2022-08-17T17:45:12.170Z,68
2022-08-17T17:47:13.600Z,75.5
2022-08-17T17:49:14.983Z,66.7
2022-08-17T17:53:22.607Z,67.9
2022-08-17T17:55:22.341Z,76.8
2022-08-17T17:57:23.664Z,81.9
2022-08-17T17:59:24.987Z,70.9
2022-08-17T18:03:27.796Z,51.9
2022-08-17T18:05:29.152Z,47.8
2022-08-17T18:09:35.264Z,48.3
2022-08-17T18:11:36.595Z,30.2
2022-08-17T18:13:59.635Z,38.9
2022-08-17T18:16:01.093Z,35.6
2022-08-17T18:18:02.456Z,28.3
2022-08-17T18:20:07.146Z,31.8
2022-08-17T18:22:08.546Z,31.6
2022-08-17T18:26:11.296Z,34.9
2022-08-17T18:30:15.168Z,31.8
2022-08-17T18:34:43.881Z,37.3
2022-08-17T18:38:23.278Z,38.3
2022-08-17T18:40:24.668Z,37.5
2022-08-17T18:44:27.561Z,39.2
2022-08-17T18:46:29.761Z,42.2
2022-08-17T18:48:33.724Z,39.2
2022-08-17T18:50:35.203Z,44.8
2022-08-17T18:52:36.602Z,38
2022-08-17T18:54:38.032Z,42.5
2022-08-17T18:56:39.581Z,43.4
2022-08-17T18:58:40.982Z,49.5
2022-08-17T19:00:42.487Z,47.7
2022-08-17T19:02:47.216Z,48.9
2022-08-17T19:04:48.656Z,44.7
2022-08-17T19:06:50.092Z,44.7
2022-08-17T19:07:52.753Z,52.9
2022-08-17T19:09:53.971Z,55.7
2022-08-17T19:13:56.786Z,51.8
2022-08-17T19:18:03.055Z,59.3
2022-08-17T19:20:04.501Z,57.8
2022-08-17T19:22:05.977Z,58.7
2022-08-17T19:24:07.379Z,59.1
2022-08-17T19:26:50.262Z,58.1
2022-08-17T19:32:16.509Z,54.5
2022-08-17T19:34:33.428Z,46.7
2022-08-17T19:36:19.461Z,46.3
2022-08-17T19:38:20.901Z,41.8
2022-08-17T19:40:48.755Z,45.3
2022-08-17T19:42:23.864Z,46.3
2022-08-17T19:44:28.507Z,56.9
2022-08-17T19:48:31.419Z,47.7
2022-08-17T19:50:32.885Z,51.8
2022-08-17T19:52:34.333Z,51.1
2022-08-17T19:54:35.775Z,40.7
2022-08-17T19:56:37.221Z,53.1
2022-08-17T19:58:41.986Z,54.8
2022-08-17T20:03:47.263Z,58.2
2022-08-17T20:06:08.647Z,57.4
2022-08-17T20:13:57.817Z,64.6
2022-08-17T20:15:59.292Z,70.7
2022-08-17T20:26:09.782Z,119.8
2022-08-17T20:28:11.222Z,93.7
2022-08-17T20:30:12.981Z,94.2
2022-08-17T20:38:18.198Z,119.7
2022-08-17T20:40:22.964Z,112.8
2022-08-17T20:42:24.301Z,99.9
2022-08-17T20:44:25.751Z,103.6
2022-08-17T20:46:27.185Z,94.5
2022-08-17T20:48:37.990Z,86.7
2022-08-17T20:50:29.942Z,89.5
2022-08-17T20:52:31.382Z,99.5
2022-08-17T20:54:36.156Z,84.7
2022-08-17T20:56:37.507Z,86.7
2022-08-17T20:58:38.923Z,90.6
2022-08-17T20:59:41.279Z,89
2022-08-17T21:01:42.784Z,97.6
2022-08-17T21:03:51.269Z,88.2
2022-08-17T21:09:51.793Z,84.8
2022-08-17T21:11:56.808Z,84.8
2022-08-17T21:17:57.514Z,71.7
2022-08-17T21:20:11.073Z,73.7
2022-08-17T21:26:06.445Z,80.1
2022-08-17T21:28:07.898Z,75.7
2022-08-17T21:30:10.208Z,86.4
2022-08-17T21:32:10.728Z,86.5
2022-08-17T21:34:12.184Z,75.5
2022-08-17T21:36:16.921Z,74.9
2022-08-17T21:38:18.327Z,85.9
2022-08-17T21:40:19.829Z,83.2
2022-08-17T21:42:21.176Z,80.8
2022-08-17T21:44:29.194Z,93.2
2022-08-17T21:46:25.601Z,87.7
2022-08-17T21:48:26.986Z,89.4
2022-08-17T21:50:31.743Z,89.8
2022-08-17T21:52:33.169Z,81.6
2022-08-17T21:54:34.601Z,82.6
2022-08-17T21:56:57.619Z,89.6
2022-08-17T21:58:58.964Z,82.5
2022-08-17T22:01:00.410Z,71.6
2022-08-17T22:03:05.089Z,64.9
2022-08-17T22:07:07.921Z,54
2022-08-17T22:09:09.376Z,59.1
2022-08-17T22:11:10.783Z,65.1
2022-08-17T22:13:16.284Z,55.9
2022-08-17T22:17:18.455Z,60.8
2022-08-17T22:19:19.838Z,56.7
2022-08-17T22:21:22.661Z,61.3
2022-08-17T22:25:24.122Z,52.6
2022-08-17T22:27:25.594Z,62.9
2022-08-17T22:29:27.028Z,54.5
2022-08-17T22:31:31.764Z,59.9
2022-08-17T22:35:34.620Z,64.2
2022-08-17T22:39:37.557Z,43.9
2022-08-17T22:41:38.940Z,38.7
2022-08-17T22:43:43.811Z,58.3
2022-08-17T22:49:53.108Z,64
2022-08-17T22:52:51.695Z,48.8
2022-08-17T22:54:53.152Z,46.9
2022-08-17T22:56:54.599Z,42
2022-08-17T22:58:59.525Z,46.7
2022-08-17T23:01:00.784Z,47.1
2022-08-17T23:03:02.295Z,57.1
2022-08-17T23:05:03.663Z,45.1
2022-08-17T23:07:05.240Z,39.6
2022-08-17T23:09:06.556Z,50.3
2022-08-17T23:11:07.980Z,50.9
2022-08-17T23:13:12.919Z,53.8
2022-08-17T23:15:14.137Z,53.8
2022-08-17T23:17:15.595Z,46.5
2022-08-17T23:19:17.062Z,58.2
2022-08-17T23:21:24.990Z,47.4
2022-08-17T23:23:23.523Z,49.5
2022-08-17T23:25:21.388Z,39.5
2022-08-17T23:27:26.175Z,40.9
2022-08-17T23:29:27.576Z,41.2
2022-08-17T23:31:29.052Z,57
2022-08-17T23:37:33.381Z,35.2
2022-08-17T23:39:34.882Z,32.2
2022-08-17T23:41:39.534Z,43.5
2022-08-17T23:43:40.997Z,40.5
2022-08-17T23:45:42.459Z,40.9
2022-08-17T23:46:44.860Z,42.4
2022-08-17T23:48:46.301Z,35.9
2022-08-17T23:50:47.730Z,36.9
2022-08-17T23:52:49.174Z,33.4
2022-08-17T23:54:53.900Z,39.5
2022-08-17T23:56:55.341Z,34.7
2022-08-17T23:58:56.769Z,37.4
